Anzahl Datensätze: 285
min. Temperatur: 11.8 °C
max. Temperatur: 20.1 °C
max. Windgeschwindigkeit: 26.3 km/h
Niederschlagsumme: 10.9 mm
| Datum |
Zeit |
Temp °C |
Feuchte % |
Taupunkt °C |
Luftdruck hPa |
Wind km/h |
Windrichtung |
Strahlung w/m² |
Niederschlag mm |
|---|---|---|---|---|---|---|---|---|---|
| 15.06.2024 | 00:04 | 13.4 | 89 | 11.7 | 1008.4 | 1.4 | N | 0 | 0.0 |
| 15.06.2024 | 00:09 | 13.1 | 90 | 11.5 | 1008.4 | 2.9 | N | 0 | 0.0 |
| 15.06.2024 | 00:14 | 13.0 | 89 | 11.3 | 1008.2 | 5.4 | N | 0 | 0.0 |
| 15.06.2024 | 00:19 | 13.1 | 87 | 11.0 | 1008.1 | 3.2 | N | 0 | 0.0 |
| 15.06.2024 | 00:24 | 13.2 | 86 | 10.9 | 1007.9 | 3.2 | N | 0 | 0.0 |
| 15.06.2024 | 00:29 | 13.5 | 82 | 10.4 | 1007.7 | 1.4 | N | 0 | 0.0 |
| 15.06.2024 | 00:34 | 13.6 | 84 | 11.0 | 1007.6 | 1.8 | N | 0 | 0.0 |
| 15.06.2024 | 00:39 | 13.4 | 83 | 10.6 | 1007.5 | 2.9 | N | 0 | 0.0 |
| 15.06.2024 | 00:44 | 13.4 | 82 | 10.4 | 1007.3 | 1.8 | N | 0 | 0.0 |
| 15.06.2024 | 00:49 | 13.5 | 85 | 11.0 | 1007.2 | 0.7 | N | 0 | 0.0 |
| 15.06.2024 | 00:54 | 13.2 | 87 | 11.1 | 1007.2 | 1.4 | N | 0 | 0.0 |
| 15.06.2024 | 00:59 | 13.1 | 86 | 10.9 | 1007.1 | 2.5 | N | 0 | 0.0 |
| 15.06.2024 | 01:04 | 13.1 | 87 | 11.0 | 1007.0 | 1.4 | N | 0 | 0.0 |
| 15.06.2024 | 01:09 | 13.0 | 86 | 10.8 | 1006.9 | 1.8 | N | 0 | 0.0 |
| 15.06.2024 | 01:14 | 13.0 | 86 | 10.7 | 1006.6 | 4.0 | N | 0 | 0.0 |
| 15.06.2024 | 01:19 | 13.3 | 85 | 10.8 | 1006.5 | 2.2 | N | 0 | 0.0 |
| 15.06.2024 | 01:24 | 13.3 | 85 | 10.7 | 1006.4 | 1.4 | N | 0 | 0.0 |
| 15.06.2024 | 01:29 | 13.3 | 85 | 10.9 | 1006.3 | 2.5 | N | 0 | 0.0 |
| 15.06.2024 | 01:34 | 13.5 | 86 | 11.2 | 1006.4 | 0.4 | N | 0 | 0.0 |
| 15.06.2024 | 01:39 | 13.3 | 86 | 11.0 | 1006.3 | 4.0 | N | 0 | 0.0 |
| 15.06.2024 | 01:44 | 13.2 | 87 | 11.1 | 1006.5 | 6.8 | N | 0 | 0.0 |
| 15.06.2024 | 01:49 | 13.4 | 89 | 11.5 | 1006.5 | 2.9 | N | 0 | 0.0 |
| 15.06.2024 | 01:54 | 13.3 | 90 | 11.6 | 1006.4 | 3.6 | N | 0 | 0.0 |
| 15.06.2024 | 02:00 | 13.3 | 90 | 11.6 | 1006.2 | 2.5 | N | 0 | 0.0 |
| 15.06.2024 | 02:05 | 13.4 | 87 | 11.2 | 1006.2 | 4.7 | N | 0 | 0.0 |
| 15.06.2024 | 02:10 | 14.0 | 79 | 10.5 | 1006.1 | 4.0 | N | 0 | 0.0 |
| 15.06.2024 | 02:15 | 14.1 | 79 | 10.5 | 1006.1 | 8.3 | N | 0 | 0.0 |
| 15.06.2024 | 02:20 | 14.2 | 79 | 10.7 | 1006.2 | 6.1 | N | 0 | 0.0 |
| 15.06.2024 | 02:25 | 14.1 | 81 | 11.0 | 1006.4 | 6.8 | N | 0 | 0.0 |
| 15.06.2024 | 02:30 | 14.0 | 83 | 11.2 | 1006.3 | 14.0 | N | 0 | 0.0 |
| 15.06.2024 | 02:35 | 14.0 | 84 | 11.4 | 1006.4 | 6.1 | N | 0 | 0.0 |
| 15.06.2024 | 02:40 | 13.9 | 85 | 11.4 | 1006.3 | 8.6 | N | 0 | 0.0 |
| 15.06.2024 | 02:45 | 13.9 | 85 | 11.5 | 1006.3 | 11.9 | N | 0 | 0.0 |
| 15.06.2024 | 02:50 | 14.0 | 85 | 11.5 | 1006.5 | 4.7 | N | 0 | 0.0 |
| 15.06.2024 | 02:55 | 14.0 | 85 | 11.5 | 1006.5 | 13.3 | N | 0 | 0.0 |
| 15.06.2024 | 03:00 | 14.0 | 84 | 11.4 | 1006.7 | 6.1 | N | 0 | 0.0 |
| 15.06.2024 | 03:05 | 14.1 | 84 | 11.4 | 1007.0 | 13.0 | N | 0 | 0.0 |
| 15.06.2024 | 03:10 | 14.2 | 83 | 11.3 | 1006.9 | 9.4 | N | 0 | 0.0 |
| 15.06.2024 | 03:15 | 14.3 | 82 | 11.3 | 1006.6 | 5.0 | N | 0 | 0.0 |
| 15.06.2024 | 03:20 | 14.3 | 82 | 11.2 | 1006.2 | 5.0 | N | 0 | 0.0 |
| 15.06.2024 | 03:25 | 14.3 | 82 | 11.2 | 1005.9 | 1.1 | N | 0 | 0.0 |
| 15.06.2024 | 03:30 | 14.3 | 83 | 11.4 | 1005.8 | 3.2 | N | 0 | 0.0 |
| 15.06.2024 | 03:35 | 14.1 | 84 | 11.4 | 1005.9 | 1.4 | N | 0 | 0.0 |
| 15.06.2024 | 03:40 | 14.1 | 84 | 11.5 | 1005.9 | 4.7 | N | 0 | 0.0 |
| 15.06.2024 | 03:45 | 13.8 | 86 | 11.4 | 1005.9 | 4.3 | N | 0 | 0.0 |
| 15.06.2024 | 03:50 | 13.7 | 85 | 11.3 | 1006.0 | 1.1 | N | 0 | 0.0 |
| 15.06.2024 | 03:55 | 13.8 | 86 | 11.5 | 1006.4 | 1.1 | N | 0 | 0.0 |
| 15.06.2024 | 04:00 | 13.6 | 86 | 11.2 | 1006.5 | 4.3 | N | 0 | 0.0 |
| 15.06.2024 | 04:05 | 13.6 | 86 | 11.2 | 1006.9 | 2.5 | N | 0 | 0.0 |
| 15.06.2024 | 04:10 | 13.7 | 85 | 11.2 | 1007.0 | 3.6 | N | 0 | 0.0 |
| 15.06.2024 | 04:15 | 14.2 | 81 | 11.0 | 1006.9 | 5.0 | N | 0 | 0.0 |
| 15.06.2024 | 04:20 | 14.4 | 80 | 11.1 | 1006.6 | 1.8 | N | 0 | 0.1 |
| 15.06.2024 | 04:25 | 14.3 | 82 | 11.2 | 1007.2 | 0.7 | N | 0 | 0.1 |
| 15.06.2024 | 04:30 | 14.1 | 82 | 11.2 | 1007.7 | 8.6 | N | 0 | 0.1 |
| 15.06.2024 | 04:36 | 14.3 | 82 | 11.2 | 1007.7 | 9.0 | N | 0 | 0.1 |
| 15.06.2024 | 04:41 | 14.2 | 82 | 11.2 | 1007.9 | 7.6 | N | 0 | 0.1 |
| 15.06.2024 | 04:46 | 14.2 | 83 | 11.3 | 1008.0 | 4.3 | N | 0 | 0.2 |
| 15.06.2024 | 04:51 | 13.9 | 84 | 11.3 | 1007.8 | 6.1 | N | 0 | 0.5 |
| 15.06.2024 | 04:56 | 13.8 | 86 | 11.5 | 1007.9 | 3.2 | N | 0 | 0.6 |
| 15.06.2024 | 05:01 | 13.6 | 88 | 11.6 | 1008.0 | 2.9 | N | 0 | 0.7 |
| 15.06.2024 | 05:06 | 13.5 | 88 | 11.6 | 1008.2 | 1.4 | N | 0 | 0.9 |
| 15.06.2024 | 05:11 | 13.5 | 89 | 11.8 | 1008.4 | 1.4 | N | 0 | 1.0 |
| 15.06.2024 | 05:16 | 13.4 | 91 | 12.0 | 1008.8 | 1.4 | N | 0 | 1.0 |
| 15.06.2024 | 05:21 | 13.3 | 93 | 12.1 | 1008.8 | 1.8 | N | 0 | 1.1 |
| 15.06.2024 | 05:26 | 13.0 | 93 | 12.0 | 1009.0 | 5.0 | N | 0 | 1.3 |
| 15.06.2024 | 05:31 | 13.1 | 94 | 12.1 | 1009.1 | 2.2 | N | 0 | 1.6 |
| 15.06.2024 | 05:36 | 13.0 | 94 | 12.0 | 1009.3 | 4.3 | N | 0 | 1.8 |
| 15.06.2024 | 05:41 | 13.0 | 94 | 12.1 | 1009.3 | 6.1 | N | 0 | 2.1 |
| 15.06.2024 | 05:46 | 12.9 | 95 | 12.0 | 1009.5 | 0.7 | N | 0 | 2.3 |
| 15.06.2024 | 05:51 | 12.9 | 95 | 12.1 | 1009.4 | 2.9 | N | 0 | 2.6 |
| 15.06.2024 | 05:56 | 12.7 | 96 | 12.1 | 1009.6 | 1.1 | N | 0 | 3.0 |
| 15.06.2024 | 06:01 | 12.7 | 96 | 12.2 | 1009.5 | 3.2 | N | 0 | 3.4 |
| 15.06.2024 | 06:06 | 12.7 | 97 | 12.2 | 1009.7 | 1.8 | N | 2 | 3.7 |
| 15.06.2024 | 06:11 | 12.7 | 97 | 12.3 | 1009.8 | 6.1 | N | 2 | 4.7 |
| 15.06.2024 | 06:16 | 12.7 | 97 | 12.3 | 1009.9 | 0.7 | N | 2 | 5.2 |
| 15.06.2024 | 06:21 | 12.7 | 97 | 12.3 | 1010.0 | 2.9 | N | 2 | 5.9 |
| 15.06.2024 | 06:26 | 12.6 | 98 | 12.3 | 1010.0 | 9.0 | N | 2 | 6.4 |
| 15.06.2024 | 06:31 | 12.7 | 98 | 12.3 | 1010.3 | 5.4 | N | 2 | 6.7 |
| 15.06.2024 | 06:36 | 12.7 | 98 | 12.4 | 1010.2 | 3.2 | N | 3 | 7.0 |
| 15.06.2024 | 06:41 | 12.5 | 97 | 12.1 | 1010.3 | 10.4 | N | 3 | 7.4 |
| 15.06.2024 | 06:46 | 12.2 | 97 | 11.7 | 1010.4 | 8.3 | N | 5 | 7.7 |
| 15.06.2024 | 06:51 | 12.2 | 97 | 11.8 | 1010.5 | 6.8 | N | 5 | 8.0 |
| 15.06.2024 | 06:56 | 12.1 | 97 | 11.7 | 1010.6 | 5.8 | N | 5 | 8.2 |
| 15.06.2024 | 07:01 | 12.0 | 97 | 11.6 | 1010.8 | 4.0 | N | 4 | 8.6 |
| 15.06.2024 | 07:06 | 12.0 | 97 | 11.6 | 1010.7 | 11.2 | N | 6 | 9.0 |
| 15.06.2024 | 07:11 | 12.0 | 97 | 11.6 | 1010.9 | 11.5 | N | 8 | 9.2 |
| 15.06.2024 | 07:17 | 11.9 | 97 | 11.4 | 1011.0 | 0.7 | N | 10 | 9.4 |
| 15.06.2024 | 07:22 | 11.9 | 97 | 11.5 | 1011.0 | 1.8 | N | 18 | 9.6 |
| 15.06.2024 | 07:27 | 11.9 | 97 | 11.5 | 1011.1 | 1.4 | N | 17 | 9.8 |
| 15.06.2024 | 07:32 | 11.8 | 97 | 11.3 | 1011.1 | 2.2 | N | 19 | 9.9 |
| 15.06.2024 | 07:37 | 11.9 | 97 | 11.4 | 1011.2 | 3.6 | N | 23 | 10.0 |
| 15.06.2024 | 07:42 | 12.1 | 96 | 11.4 | 1011.1 | 1.8 | N | 28 | 10.1 |
| 15.06.2024 | 07:47 | 12.1 | 95 | 11.4 | 1011.0 | 0.4 | N | 34 | 10.2 |
| 15.06.2024 | 07:52 | 12.2 | 96 | 11.5 | 1010.9 | 4.7 | N | 38 | 10.2 |
| 15.06.2024 | 07:57 | 12.0 | 96 | 11.4 | 1010.9 | 3.2 | N | 41 | 10.2 |
| 15.06.2024 | 08:02 | 12.0 | 95 | 11.3 | 1010.9 | 3.6 | N | 43 | 10.2 |
| 15.06.2024 | 08:07 | 12.2 | 95 | 11.4 | 1010.8 | 0.4 | N | 50 | 10.3 |
| 15.06.2024 | 08:12 | 12.2 | 94 | 11.3 | 1010.7 | 3.2 | N | 46 | 10.3 |
| 15.06.2024 | 08:17 | 12.2 | 94 | 11.2 | 1010.8 | 2.2 | N | 45 | 10.3 |
| 15.06.2024 | 08:22 | 12.3 | 95 | 11.5 | 1010.9 | 1.4 | N | 47 | 10.3 |
| 15.06.2024 | 08:27 | 12.3 | 95 | 11.6 | 1011.1 | 2.9 | N | 56 | 10.3 |
| 15.06.2024 | 08:32 | 12.4 | 95 | 11.7 | 1011.4 | 3.2 | N | 60 | 10.4 |
| 15.06.2024 | 08:37 | 12.3 | 95 | 11.6 | 1011.4 | 6.5 | N | 49 | 10.4 |
| 15.06.2024 | 08:42 | 12.2 | 95 | 11.5 | 1011.4 | 4.3 | N | 52 | 10.5 |
| 15.06.2024 | 08:47 | 12.2 | 95 | 11.4 | 1011.3 | 2.2 | N | 89 | 10.7 |
| 15.06.2024 | 08:52 | 12.4 | 96 | 11.8 | 1011.2 | 2.9 | N | 87 | 10.7 |
| 15.06.2024 | 08:57 | 12.3 | 95 | 11.5 | 1011.1 | 6.5 | N | 98 | 10.8 |
| 15.06.2024 | 09:02 | 12.3 | 95 | 11.5 | 1011.4 | 4.0 | N | 103 | 10.8 |
| 15.06.2024 | 09:07 | 12.2 | 95 | 11.4 | 1011.5 | 10.8 | N | 103 | 10.8 |
| 15.06.2024 | 09:12 | 12.2 | 95 | 11.5 | 1011.6 | 5.0 | N | 84 | 10.8 |
| 15.06.2024 | 09:17 | 12.2 | 96 | 11.6 | 1011.8 | 2.9 | N | 46 | 10.8 |
| 15.06.2024 | 09:22 | 12.4 | 97 | 11.9 | 1011.8 | 2.2 | N | 51 | 10.9 |
| 15.06.2024 | 09:27 | 12.3 | 95 | 11.6 | 1011.7 | 1.1 | N | 141 | 10.9 |
| 15.06.2024 | 09:32 | 12.6 | 95 | 11.9 | 1011.0 | 1.8 | N | 222 | 10.9 |
| 15.06.2024 | 09:37 | 13.1 | 96 | 12.4 | 1010.7 | 2.2 | N | 365 | 10.9 |
| 15.06.2024 | 09:42 | 12.7 | 95 | 11.9 | 1010.7 | 2.5 | N | 236 | 10.9 |
| 15.06.2024 | 09:47 | 12.9 | 95 | 12.1 | 1010.6 | 3.6 | N | 293 | 10.9 |
| 15.06.2024 | 09:52 | 13.0 | 93 | 12.0 | 1010.5 | 3.2 | N | 260 | 10.9 |
| 15.06.2024 | 09:57 | 12.9 | 93 | 11.8 | 1010.6 | 3.2 | N | 295 | 10.9 |
| 15.06.2024 | 10:02 | 13.0 | 92 | 11.7 | 1010.6 | 2.2 | N | 473 | 10.9 |
| 15.06.2024 | 10:07 | 13.8 | 92 | 12.5 | 1010.5 | 2.2 | N | 339 | 10.9 |
| 15.06.2024 | 10:13 | 13.6 | 88 | 11.7 | 1010.4 | 2.5 | N | 440 | 10.9 |
| 15.06.2024 | 10:18 | 14.5 | 87 | 12.4 | 1010.1 | 1.4 | N | 261 | 10.9 |
| 15.06.2024 | 10:23 | 14.6 | 87 | 12.4 | 1010.0 | 2.2 | N | 240 | 10.9 |
| 15.06.2024 | 10:28 | 14.4 | 88 | 12.4 | 1009.9 | 4.0 | N | 357 | 10.9 |
| 15.06.2024 | 10:33 | 14.0 | 88 | 12.0 | 1010.1 | 6.1 | N | 292 | 10.9 |
| 15.06.2024 | 10:38 | 13.6 | 89 | 11.7 | 1010.2 | 7.6 | N | 245 | 10.9 |
| 15.06.2024 | 10:43 | 13.3 | 89 | 11.6 | 1010.3 | 7.2 | N | 311 | 10.9 |
| 15.06.2024 | 10:48 | 13.5 | 90 | 12.0 | 1010.3 | 5.0 | N | 279 | 10.9 |
| 15.06.2024 | 10:53 | 13.9 | 88 | 11.9 | 1010.5 | 2.9 | N | 251 | 10.9 |
| 15.06.2024 | 10:58 | 14.4 | 84 | 11.8 | 1010.1 | 2.9 | N | 219 | 10.9 |
| 15.06.2024 | 11:03 | 14.5 | 86 | 12.1 | 1010.1 | 1.1 | N | 249 | 10.9 |
| 15.06.2024 | 11:08 | 14.7 | 84 | 12.0 | 1010.0 | 1.1 | N | 272 | 10.9 |
| 15.06.2024 | 11:13 | 14.5 | 83 | 11.6 | 1010.1 | 2.2 | N | 198 | 10.9 |
| 15.06.2024 | 11:18 | 14.5 | 84 | 11.9 | 1010.2 | 3.6 | N | 192 | 10.9 |
| 15.06.2024 | 11:23 | 14.5 | 83 | 11.6 | 1010.2 | 1.8 | N | 253 | 10.9 |
| 15.06.2024 | 11:33 | 14.3 | 81 | 11.2 | 1010.5 | 2.2 | N | 174 | 10.9 |
| 15.06.2024 | 11:38 | 14.2 | 80 | 10.9 | 1010.5 | 7.2 | N | 189 | 10.9 |
| 15.06.2024 | 11:43 | 14.1 | 78 | 10.4 | 1010.5 | 2.2 | N | 203 | 10.9 |
| 15.06.2024 | 11:48 | 14.0 | 79 | 10.5 | 1010.5 | 1.8 | N | 241 | 10.9 |
| 15.06.2024 | 11:53 | 14.3 | 77 | 10.4 | 1010.5 | 4.3 | N | 237 | 10.9 |
| 15.06.2024 | 11:58 | 14.2 | 74 | 9.8 | 1010.4 | 4.7 | N | 272 | 10.9 |
| 15.06.2024 | 12:03 | 14.5 | 74 | 9.9 | 1010.5 | 3.2 | N | 290 | 10.9 |
| 15.06.2024 | 12:08 | 14.7 | 72 | 9.7 | 1010.5 | 1.8 | N | 319 | 10.9 |
| 15.06.2024 | 12:13 | 14.7 | 74 | 10.1 | 1010.5 | 3.6 | N | 251 | 10.9 |
| 15.06.2024 | 12:18 | 15.0 | 72 | 10.1 | 1010.5 | 1.4 | N | 379 | 10.9 |
| 15.06.2024 | 12:23 | 15.4 | 71 | 10.1 | 1010.4 | 1.4 | N | 348 | 10.9 |
| 15.06.2024 | 12:28 | 15.3 | 71 | 10.2 | 1010.3 | 1.1 | N | 300 | 10.9 |
| 15.06.2024 | 12:33 | 15.3 | 70 | 9.9 | 1010.1 | 3.6 | N | 471 | 10.9 |
| 15.06.2024 | 12:38 | 15.2 | 70 | 9.7 | 1010.2 | 1.8 | N | 443 | 10.9 |
| 15.06.2024 | 12:44 | 15.7 | 67 | 9.6 | 1010.1 | 3.2 | N | 254 | 10.9 |
| 15.06.2024 | 12:49 | 15.8 | 66 | 9.4 | 1010.1 | 1.4 | N | 399 | 10.9 |
| 15.06.2024 | 12:54 | 16.0 | 65 | 9.3 | 1010.0 | 4.3 | N | 403 | 10.9 |
| 15.06.2024 | 12:59 | 16.3 | 67 | 10.1 | 1009.8 | 2.2 | N | 301 | 10.9 |
| 15.06.2024 | 13:04 | 14.8 | 66 | 8.5 | 1010.1 | 2.9 | N | 297 | 10.9 |
| 15.06.2024 | 13:09 | 15.0 | 70 | 9.7 | 1010.1 | 2.5 | N | 286 | 10.9 |
| 15.06.2024 | 13:14 | 16.3 | 65 | 9.7 | 1009.8 | 1.4 | N | 258 | 10.9 |
| 15.06.2024 | 13:19 | 15.5 | 64 | 8.8 | 1009.7 | 4.7 | N | 388 | 10.9 |
| 15.06.2024 | 13:24 | 15.1 | 67 | 8.9 | 1009.9 | 1.4 | N | 1197 | 10.9 |
| 15.06.2024 | 13:29 | 16.1 | 63 | 9.0 | 1009.6 | 5.4 | N | 597 | 10.9 |
| 15.06.2024 | 13:34 | 16.5 | 65 | 9.8 | 1009.5 | 5.4 | N | 575 | 10.9 |
| 15.06.2024 | 13:39 | 17.9 | 58 | 9.4 | 1009.0 | 4.3 | N | 1039 | 10.9 |
| 15.06.2024 | 13:44 | 16.5 | 62 | 9.1 | 1009.3 | 2.2 | N | 710 | 10.9 |
| 15.06.2024 | 13:49 | 17.4 | 59 | 9.4 | 1009.1 | 2.9 | N | 1078 | 10.9 |
| 15.06.2024 | 13:54 | 17.3 | 61 | 9.6 | 1009.0 | 4.7 | N | 958 | 10.9 |
| 15.06.2024 | 13:59 | 16.6 | 62 | 9.2 | 1009.3 | 5.0 | N | 1042 | 10.9 |
| 15.06.2024 | 14:04 | 17.7 | 58 | 9.3 | 1008.9 | 3.6 | N | 1077 | 10.9 |
| 15.06.2024 | 14:09 | 18.3 | 58 | 9.8 | 1008.9 | 4.0 | N | 1129 | 10.9 |
| 15.06.2024 | 14:14 | 19.6 | 55 | 10.2 | 1008.5 | 2.2 | N | 1019 | 10.9 |
| 15.06.2024 | 14:19 | 20.1 | 52 | 9.8 | 1008.3 | 4.3 | N | 1058 | 10.9 |
| 15.06.2024 | 14:24 | 18.2 | 59 | 10.1 | 1008.7 | 1.8 | N | 1074 | 10.9 |
| 15.06.2024 | 14:29 | 19.1 | 56 | 10.3 | 1008.7 | 2.9 | N | 447 | 10.9 |
| 15.06.2024 | 14:34 | 19.1 | 57 | 10.3 | 1008.8 | 3.2 | N | 379 | 10.9 |
| 15.06.2024 | 14:39 | 18.8 | 56 | 10.0 | 1008.6 | 4.7 | N | 562 | 10.9 |
| 15.06.2024 | 14:44 | 18.7 | 57 | 9.9 | 1008.7 | 3.2 | N | 427 | 10.9 |
| 15.06.2024 | 14:49 | 18.7 | 56 | 9.6 | 1008.8 | 3.6 | N | 370 | 10.9 |
| 15.06.2024 | 14:54 | 18.8 | 57 | 10.2 | 1008.7 | 1.1 | N | 546 | 10.9 |
| 15.06.2024 | 14:59 | 19.5 | 55 | 10.1 | 1008.7 | 2.5 | N | 366 | 10.9 |
| 15.06.2024 | 15:04 | 19.2 | 56 | 10.1 | 1008.9 | 2.9 | N | 655 | 10.9 |
| 15.06.2024 | 15:09 | 19.9 | 54 | 10.3 | 1008.5 | 2.2 | N | 634 | 10.9 |
| 15.06.2024 | 15:14 | 19.0 | 55 | 9.8 | 1008.7 | 2.2 | N | 294 | 10.9 |
| 15.06.2024 | 15:19 | 18.7 | 56 | 9.8 | 1008.9 | 1.4 | N | 370 | 10.9 |
| 15.06.2024 | 15:25 | 18.4 | 54 | 9.0 | 1008.8 | 3.2 | N | 309 | 10.9 |
| 15.06.2024 | 15:30 | 18.5 | 57 | 9.8 | 1008.9 | 1.8 | N | 287 | 10.9 |
| 15.06.2024 | 15:35 | 18.1 | 56 | 9.1 | 1008.9 | 4.0 | N | 288 | 10.9 |
| 15.06.2024 | 15:40 | 18.4 | 54 | 8.9 | 1008.8 | 2.5 | N | 301 | 10.9 |
| 15.06.2024 | 15:45 | 17.8 | 57 | 9.1 | 1009.0 | 1.8 | N | 242 | 10.9 |
| 15.06.2024 | 15:50 | 17.7 | 58 | 9.2 | 1009.2 | 2.2 | N | 230 | 10.9 |
| 15.06.2024 | 15:55 | 17.3 | 58 | 8.9 | 1009.0 | 5.0 | N | 222 | 10.9 |
| 15.06.2024 | 16:00 | 16.4 | 59 | 8.4 | 1009.3 | 4.7 | N | 158 | 10.9 |
| 15.06.2024 | 16:05 | 17.2 | 57 | 8.7 | 1009.1 | 3.2 | N | 168 | 10.9 |
| 15.06.2024 | 16:10 | 16.6 | 60 | 8.8 | 1009.3 | 1.8 | N | 123 | 10.9 |
| 15.06.2024 | 16:15 | 16.9 | 59 | 8.8 | 1009.2 | 1.8 | N | 124 | 10.9 |
| 15.06.2024 | 16:20 | 16.5 | 62 | 9.1 | 1009.2 | 2.2 | N | 124 | 10.9 |
| 15.06.2024 | 16:25 | 16.6 | 65 | 10.0 | 1009.3 | 2.2 | N | 111 | 10.9 |
| 15.06.2024 | 16:30 | 16.1 | 66 | 9.8 | 1009.3 | 2.9 | N | 115 | 10.9 |
| 15.06.2024 | 16:35 | 16.0 | 64 | 9.3 | 1009.4 | 5.8 | N | 94 | 10.9 |
| 15.06.2024 | 16:40 | 15.4 | 68 | 9.4 | 1009.5 | 5.0 | N | 103 | 10.9 |
| 15.06.2024 | 16:45 | 15.4 | 66 | 9.1 | 1009.5 | 3.6 | N | 40 | 10.9 |
| 15.06.2024 | 16:50 | 15.9 | 66 | 9.7 | 1009.3 | 3.6 | N | 36 | 10.9 |
| 15.06.2024 | 16:55 | 16.0 | 66 | 9.7 | 1009.3 | 4.3 | N | 47 | 10.9 |
| 15.06.2024 | 17:00 | 16.0 | 67 | 9.9 | 1009.2 | 1.1 | N | 76 | 10.9 |
| 15.06.2024 | 17:05 | 16.1 | 67 | 9.9 | 1009.3 | 5.8 | N | 49 | 10.9 |
| 15.06.2024 | 17:10 | 16.1 | 67 | 9.9 | 1009.2 | 2.5 | N | 51 | 10.9 |
| 15.06.2024 | 17:15 | 16.3 | 67 | 10.1 | 1009.3 | 2.2 | N | 63 | 10.9 |
| 15.06.2024 | 17:20 | 16.2 | 66 | 9.9 | 1009.2 | 2.2 | N | 69 | 10.9 |
| 15.06.2024 | 17:25 | 15.6 | 70 | 10.1 | 1009.4 | 2.9 | N | 85 | 10.9 |
| 15.06.2024 | 17:30 | 15.5 | 69 | 9.8 | 1009.5 | 2.9 | N | 72 | 10.9 |
| 15.06.2024 | 17:35 | 15.6 | 69 | 9.9 | 1009.5 | 3.2 | N | 78 | 10.9 |
| 15.06.2024 | 17:40 | 16.2 | 66 | 9.8 | 1009.3 | 1.8 | N | 82 | 10.9 |
| 15.06.2024 | 17:45 | 15.9 | 67 | 9.8 | 1009.3 | 1.8 | N | 72 | 10.9 |
| 15.06.2024 | 17:50 | 16.0 | 67 | 9.9 | 1009.3 | 3.6 | N | 71 | 10.9 |
| 15.06.2024 | 17:55 | 16.2 | 66 | 9.9 | 1009.3 | 4.0 | N | 62 | 10.9 |
| 15.06.2024 | 18:00 | 15.9 | 68 | 9.9 | 1009.4 | 4.7 | N | 51 | 10.9 |
| 15.06.2024 | 18:06 | 15.6 | 70 | 10.2 | 1009.6 | 3.6 | N | 49 | 10.9 |
| 15.06.2024 | 18:11 | 15.6 | 71 | 10.3 | 1009.4 | 1.1 | N | 53 | 10.9 |
| 15.06.2024 | 18:16 | 15.4 | 73 | 10.7 | 1009.5 | 2.5 | N | 54 | 10.9 |
| 15.06.2024 | 18:21 | 15.5 | 74 | 10.9 | 1009.5 | 1.8 | N | 56 | 10.9 |
| 15.06.2024 | 18:26 | 15.2 | 75 | 10.8 | 1009.5 | 5.4 | N | 72 | 10.9 |
| 15.06.2024 | 18:31 | 15.3 | 75 | 10.9 | 1009.4 | 1.8 | N | 67 | 10.9 |
| 15.06.2024 | 18:36 | 15.5 | 74 | 10.9 | 1009.3 | 2.9 | N | 85 | 10.9 |
| 15.06.2024 | 18:41 | 15.5 | 74 | 10.8 | 1009.4 | 2.5 | N | 85 | 10.9 |
| 15.06.2024 | 18:46 | 15.8 | 73 | 10.9 | 1009.4 | 3.6 | N | 274 | 10.9 |
| 15.06.2024 | 18:51 | 16.0 | 70 | 10.4 | 1009.3 | 1.8 | N | 57 | 10.9 |
| 15.06.2024 | 18:56 | 15.7 | 69 | 9.9 | 1009.3 | 1.4 | N | 62 | 10.9 |
| 15.06.2024 | 19:01 | 15.7 | 68 | 9.9 | 1009.3 | 3.2 | N | 89 | 10.9 |
| 15.06.2024 | 19:06 | 15.9 | 68 | 9.9 | 1009.3 | 2.5 | N | 69 | 10.9 |
| 15.06.2024 | 19:11 | 15.8 | 66 | 9.5 | 1009.4 | 1.4 | N | 57 | 10.9 |
| 15.06.2024 | 19:16 | 15.9 | 66 | 9.7 | 1009.5 | 1.4 | N | 39 | 10.9 |
| 15.06.2024 | 19:21 | 15.6 | 67 | 9.5 | 1009.5 | 2.5 | N | 35 | 10.9 |
| 15.06.2024 | 19:26 | 15.5 | 69 | 10.0 | 1009.6 | 4.7 | N | 58 | 10.9 |
| 15.06.2024 | 19:31 | 15.3 | 74 | 10.6 | 1009.6 | 2.9 | N | 46 | 10.9 |
| 15.06.2024 | 19:36 | 15.4 | 73 | 10.6 | 1009.7 | 2.5 | N | 30 | 10.9 |
| 15.06.2024 | 19:41 | 15.1 | 76 | 10.8 | 1009.7 | 2.9 | N | 25 | 10.9 |
| 15.06.2024 | 19:46 | 14.9 | 77 | 10.9 | 1009.7 | 1.1 | N | 33 | 10.9 |
| 15.06.2024 | 19:51 | 15.0 | 78 | 11.1 | 1009.7 | 2.2 | N | 24 | 10.9 |
| 15.06.2024 | 19:56 | 14.8 | 77 | 10.9 | 1009.6 | 3.2 | N | 19 | 10.9 |
| 15.06.2024 | 20:01 | 14.8 | 78 | 10.9 | 1009.8 | 2.5 | N | 13 | 10.9 |
| 15.06.2024 | 20:06 | 14.8 | 77 | 10.8 | 1009.8 | 1.4 | N | 9 | 10.9 |
| 15.06.2024 | 20:11 | 14.8 | 77 | 10.7 | 1009.8 | 2.9 | N | 6 | 10.9 |
| 15.06.2024 | 20:16 | 14.8 | 78 | 11.0 | 1009.9 | 2.2 | N | 8 | 10.9 |
| 15.06.2024 | 20:21 | 14.5 | 80 | 11.0 | 1009.9 | 0.7 | N | 8 | 10.9 |
| 15.06.2024 | 20:26 | 14.7 | 80 | 11.2 | 1009.8 | 0.7 | N | 4 | 10.9 |
| 15.06.2024 | 20:31 | 14.7 | 77 | 10.6 | 1009.8 | 1.8 | N | 4 | 10.9 |
| 15.06.2024 | 20:37 | 14.7 | 76 | 10.5 | 1009.8 | 1.4 | N | 4 | 10.9 |
| 15.06.2024 | 20:42 | 14.6 | 81 | 11.4 | 1009.8 | 2.9 | N | 5 | 10.9 |
| 15.06.2024 | 20:47 | 14.4 | 83 | 11.5 | 1009.9 | 0.7 | N | 3 | 10.9 |
| 15.06.2024 | 20:52 | 14.4 | 81 | 11.2 | 1009.9 | 2.5 | N | 2 | 10.9 |
| 15.06.2024 | 20:57 | 14.3 | 78 | 10.5 | 1010.0 | 2.2 | N | 4 | 10.9 |
| 15.06.2024 | 21:02 | 14.6 | 77 | 10.6 | 1009.8 | 1.4 | N | 2 | 10.9 |
| 15.06.2024 | 21:07 | 14.4 | 77 | 10.5 | 1009.8 | 1.8 | N | 2 | 10.9 |
| 15.06.2024 | 21:12 | 14.1 | 78 | 10.3 | 1009.9 | 0.4 | N | 0 | 10.9 |
| 15.06.2024 | 21:17 | 14.4 | 77 | 10.3 | 1010.0 | 0.7 | N | 0 | 10.9 |
| 15.06.2024 | 21:22 | 14.5 | 77 | 10.6 | 1010.1 | 4.0 | N | 0 | 10.9 |
| 15.06.2024 | 21:27 | 14.3 | 82 | 11.2 | 1010.2 | 0.4 | N | 0 | 10.9 |
| 15.06.2024 | 21:32 | 14.1 | 78 | 10.3 | 1010.3 | 2.9 | N | 0 | 10.9 |
| 15.06.2024 | 21:37 | 14.2 | 78 | 10.4 | 1010.4 | 4.0 | N | 0 | 10.9 |
| 15.06.2024 | 21:42 | 14.3 | 78 | 10.5 | 1010.3 | 2.9 | N | 0 | 10.9 |
| 15.06.2024 | 21:47 | 14.3 | 79 | 10.8 | 1010.5 | 2.2 | N | 0 | 10.9 |
| 15.06.2024 | 21:52 | 14.2 | 80 | 10.8 | 1010.6 | 2.5 | N | 0 | 10.9 |
| 15.06.2024 | 21:57 | 14.0 | 81 | 10.7 | 1010.7 | 0.0 | N | 0 | 10.9 |
| 15.06.2024 | 22:02 | 14.0 | 81 | 10.8 | 1010.8 | 1.4 | N | 0 | 10.9 |
| 15.06.2024 | 22:07 | 14.0 | 81 | 10.7 | 1010.9 | 3.6 | N | 0 | 10.9 |
| 15.06.2024 | 22:12 | 13.7 | 82 | 10.6 | 1011.0 | 2.5 | N | 0 | 10.9 |
| 15.06.2024 | 22:17 | 13.8 | 82 | 10.7 | 1011.1 | 2.5 | N | 0 | 10.9 |
| 15.06.2024 | 22:22 | 13.7 | 82 | 10.7 | 1011.2 | 2.2 | N | 0 | 10.9 |
| 15.06.2024 | 22:27 | 13.7 | 81 | 10.5 | 1011.3 | 1.1 | N | 0 | 10.9 |
| 15.06.2024 | 22:32 | 13.6 | 82 | 10.6 | 1011.4 | 2.9 | N | 0 | 10.9 |
| 15.06.2024 | 22:37 | 13.6 | 83 | 10.7 | 1011.5 | 2.2 | N | 0 | 10.9 |
| 15.06.2024 | 22:42 | 13.4 | 83 | 10.6 | 1011.5 | 7.2 | N | 0 | 10.9 |
| 15.06.2024 | 22:47 | 13.5 | 83 | 10.7 | 1011.5 | 2.2 | N | 0 | 10.9 |
| 15.06.2024 | 22:52 | 13.4 | 83 | 10.6 | 1011.5 | 1.4 | N | 0 | 10.9 |
| 15.06.2024 | 22:57 | 13.4 | 84 | 10.7 | 1011.5 | 1.1 | N | 0 | 10.9 |
| 15.06.2024 | 23:02 | 13.3 | 84 | 10.7 | 1011.6 | 1.1 | N | 0 | 10.9 |
| 15.06.2024 | 23:07 | 13.2 | 84 | 10.6 | 1011.6 | 2.5 | N | 0 | 10.9 |
| 15.06.2024 | 23:13 | 13.3 | 84 | 10.7 | 1011.6 | 2.9 | N | 0 | 10.9 |
| 15.06.2024 | 23:18 | 13.3 | 84 | 10.6 | 1011.5 | 1.8 | N | 0 | 10.9 |
| 15.06.2024 | 23:23 | 13.3 | 84 | 10.7 | 1011.5 | 1.1 | N | 0 | 10.9 |
| 15.06.2024 | 23:28 | 13.3 | 85 | 10.7 | 1011.7 | 1.8 | N | 0 | 10.9 |
| 15.06.2024 | 23:33 | 13.2 | 85 | 10.8 | 1011.8 | 0.0 | N | 0 | 10.9 |
| 15.06.2024 | 23:38 | 13.1 | 85 | 10.6 | 1011.7 | 3.6 | N | 0 | 10.9 |
| 15.06.2024 | 23:43 | 13.2 | 84 | 10.6 | 1011.7 | 0.4 | N | 0 | 10.9 |
| 15.06.2024 | 23:48 | 13.1 | 85 | 10.6 | 1011.7 | 3.2 | N | 0 | 10.9 |
| 15.06.2024 | 23:53 | 13.1 | 85 | 10.6 | 1011.7 | 1.1 | N | 0 | 10.9 |
| 15.06.2024 | 23:58 | 13.0 | 85 | 10.6 | 1011.7 | 0.7 | N | 0 | 10.9 |